PWSweather.com
Personal Weather Stations
Station Observations

SasamonSasamonES 09123

Lat: 42.4180252, Lon: -4.0413679

Elevation: 2706.692

Station Type: PCE-FWS 20

http://www.mipaginapersonal.movistar.es/web3/meteosasamon/index.htm

High Low Average
Temperature 90.7°F32.6°C 62.2°F16.8°C 73.9°F23.3°C
Dew Point 59.6°F15.3°C 45.9°F7.7°C 53.2°F11.8°C
Winds 18.1 mph 29.1 kmh 0.4 mph 0.6 kmh 5.0 mph SE8.0 kmh SE
Wind Gusts 34.2 mph55.0 kmh 2.2 mph3.5 kmh 11.0 mph17.7 kmh
Humidity 79% 25% 54%
Pressure 30.07 in1018.3 mb 29.94 in1013.9 mb -
Precipitation 0.22 in5.6 mm - -
Hour Temp Dew Point Humidity Winds Wind Gusts Pressure Precip Precip Rate Daily Precip Total
01:01 AM 65.7°F18.7°C 55.0°F12.8°C 69% 9.4 mph ESE15.1 kmh ESE 17.4 mph28.0 kmh 30.07 in1018.3 mb 0.00 in0.0 mm 0.00 in/hr0.0 mm/hr 0.00 in0.0 mm
01:12 AM 65.8°F18.8°C 54.7°F12.6°C 68% 8.4 mph ESE13.5 kmh ESE 15.2 mph24.5 kmh 30.07 in1018.3 mb 0.00 in0.0 mm 0.00 in/hr0.0 mm/hr 0.00 in0.0 mm
01:23 AM 65.7°F18.7°C 55.4°F13.0°C 70% 8.0 mph E12.9 kmh E 15.9 mph25.6 kmh 30.07 in1018.3 mb 0.00 in0.0 mm 0.00 in/hr0.0 mm/hr 0.00 in0.0 mm
01:34 AM 65.5°F18.6°C 55.6°F13.1°C 71% 7.8 mph E12.6 kmh E 16.8 mph27.0 kmh 30.07 in1018.3 mb 0.00 in0.0 mm 0.00 in/hr0.0 mm/hr 0.00 in0.0 mm
01:45 AM 65.7°F18.7°C 55.8°F13.2°C 71% 7.7 mph E12.4 kmh E 15.2 mph24.5 kmh 30.07 in1018.3 mb 0.00 in0.0 mm 0.00 in/hr0.0 mm/hr 0.00 in0.0 mm
01:56 AM 65.8°F18.8°C 55.9°F13.3°C 71% 7.1 mph ESE11.4 kmh ESE 15.9 mph25.6 kmh 30.06 in1017.9 mb 0.00 in0.0 mm 0.00 in/hr0.0 mm/hr 0.00 in0.0 mm
02:07 AM 65.7°F18.7°C 56.2°F13.4°C 72% 7.7 mph E12.4 kmh E 13.0 mph20.9 kmh 30.06 in1017.9 mb 0.00 in0.0 mm 0.00 in/hr0.0 mm/hr 0.00 in0.0 mm
02:18 AM 65.1°F18.4°C 56.5°F13.6°C 74% 8.0 mph E12.9 kmh E 17.4 mph28.0 kmh 30.06 in1017.9 mb 0.00 in0.0 mm 0.00 in/hr0.0 mm/hr 0.00 in0.0 mm
02:29 AM 64.9°F18.3°C 56.3°F13.5°C 74% 7.4 mph E11.9 kmh E 14.5 mph23.3 kmh 30.06 in1017.9 mb 0.00 in0.0 mm 0.00 in/hr0.0 mm/hr 0.00 in0.0 mm
02:40 AM 64.9°F18.3°C 56.7°F13.7°C 75% 7.7 mph E12.4 kmh E 15.9 mph25.6 kmh 30.06 in1017.9 mb 0.00 in0.0 mm 0.00 in/hr0.0 mm/hr 0.00 in0.0 mm
02:51 AM 64.8°F18.2°C 56.9°F13.8°C 76% 7.9 mph E12.7 kmh E 15.2 mph24.5 kmh 30.06 in1017.9 mb 0.00 in0.0 mm 0.00 in/hr0.0 mm/hr 0.00 in0.0 mm
03:02 AM 64.8°F18.2°C 56.9°F13.8°C 76% 7.2 mph ESE11.6 kmh ESE 13.6 mph21.9 kmh 30.06 in1017.9 mb 0.00 in0.0 mm 0.00 in/hr0.0 mm/hr 0.00 in0.0 mm
03:13 AM 64.8°F18.2°C 56.9°F13.8°C 76% 7.3 mph ESE11.7 kmh ESE 14.5 mph23.3 kmh 30.05 in1017.6 mb 0.00 in0.0 mm 0.00 in/hr0.0 mm/hr 0.00 in0.0 mm
03:24 AM 64.4°F18.0°C 56.5°F13.6°C 76% 6.6 mph E10.6 kmh E 13.6 mph21.9 kmh 30.05 in1017.6 mb 0.00 in0.0 mm 0.00 in/hr0.0 mm/hr 0.00 in0.0 mm
03:35 AM 64.0°F17.8°C 56.6°F13.7°C 77% 4.9 mph E7.9 kmh E 10.7 mph17.2 kmh 30.05 in1017.6 mb 0.00 in0.0 mm 0.00 in/hr0.0 mm/hr 0.00 in0.0 mm
03:46 AM 63.9°F17.7°C 56.4°F13.6°C 77% 3.3 mph ENE5.3 kmh ENE 9.2 mph14.8 kmh 30.05 in1017.6 mb 0.00 in0.0 mm 0.00 in/hr0.0 mm/hr 0.00 in0.0 mm
03:57 AM 63.5°F17.5°C 56.0°F13.3°C 77% 3.2 mph ENE5.1 kmh ENE 7.6 mph12.2 kmh 30.05 in1017.6 mb 0.00 in0.0 mm 0.00 in/hr0.0 mm/hr 0.00 in0.0 mm
04:08 AM 63.3°F17.4°C 55.9°F13.3°C 77% 2.2 mph NE3.5 kmh NE 6.0 mph9.7 kmh 30.05 in1017.6 mb 0.00 in0.0 mm 0.00 in/hr0.0 mm/hr 0.00 in0.0 mm
04:19 AM 63.0°F17.2°C 55.5°F13.1°C 77% 2.7 mph NE4.3 kmh NE 6.9 mph11.1 kmh 30.04 in1017.3 mb 0.00 in0.0 mm 0.00 in/hr0.0 mm/hr 0.00 in0.0 mm
04:30 AM 62.8°F17.1°C 55.3°F12.9°C 77% 3.1 mph NE5.0 kmh NE 6.0 mph9.7 kmh 30.04 in1017.3 mb 0.00 in0.0 mm 0.00 in/hr0.0 mm/hr 0.00 in0.0 mm
04:41 AM 63.0°F17.2°C 55.5°F13.1°C 77% 1.8 mph N2.9 kmh N 6.9 mph11.1 kmh 30.04 in1017.3 mb 0.00 in0.0 mm 0.00 in/hr0.0 mm/hr 0.00 in0.0 mm
04:52 AM 63.3°F17.4°C 55.1°F12.8°C 75% 1.5 mph NNE2.4 kmh NNE 5.4 mph8.7 kmh 30.04 in1017.3 mb 0.00 in0.0 mm 0.00 in/hr0.0 mm/hr 0.00 in0.0 mm
05:03 AM 63.3°F17.4°C 55.1°F12.8°C 75% 1.8 mph SSW2.9 kmh SSW 4.5 mph7.2 kmh 30.04 in1017.3 mb 0.00 in0.0 mm 0.00 in/hr0.0 mm/hr 0.00 in0.0 mm
05:14 AM 63.7°F17.6°C 54.7°F12.6°C 73% 2.0 mph S3.2 kmh S 5.4 mph8.7 kmh 30.04 in1017.3 mb 0.00 in0.0 mm 0.00 in/hr0.0 mm/hr 0.00 in0.0 mm
05:25 AM 63.1°F17.3°C 54.6°F12.6°C 74% 2.0 mph S3.2 kmh S 4.5 mph7.2 kmh 30.04 in1017.3 mb 0.00 in0.0 mm 0.00 in/hr0.0 mm/hr 0.00 in0.0 mm
05:36 AM 62.8°F17.1°C 54.2°F12.3°C 74% 0.8 mph W1.3 kmh W 3.1 mph5.0 kmh 30.05 in1017.6 mb 0.00 in0.0 mm 0.00 in/hr0.0 mm/hr 0.00 in0.0 mm
05:47 AM 63.1°F17.3°C 53.8°F12.1°C 72% 1.5 mph WSW2.4 kmh WSW 5.4 mph8.7 kmh 30.05 in1017.6 mb 0.00 in0.0 mm 0.00 in/hr0.0 mm/hr 0.00 in0.0 mm
05:58 AM 62.8°F17.1°C 53.8°F12.1°C 73% 0.4 mph NNE0.6 kmh NNE 2.2 mph3.5 kmh 30.05 in1017.6 mb 0.00 in0.0 mm 0.00 in/hr0.0 mm/hr 0.00 in0.0 mm
06:09 AM 62.6°F17.0°C 52.9°F11.6°C 71% 1.6 mph NE2.6 kmh NE 3.8 mph6.1 kmh 30.05 in1017.6 mb 0.00 in0.0 mm 0.00 in/hr0.0 mm/hr 0.00 in0.0 mm
06:20 AM 62.2°F16.8°C 52.5°F11.4°C 71% 1.3 mph NW2.1 kmh NW 5.4 mph8.7 kmh 30.05 in1017.6 mb 0.00 in0.0 mm 0.00 in/hr0.0 mm/hr 0.00 in0.0 mm
06:31 AM 62.4°F16.9°C 52.7°F11.5°C 71% 0.8 mph NW1.3 kmh NW 3.8 mph6.1 kmh 30.05 in1017.6 mb 0.00 in0.0 mm 0.00 in/hr0.0 mm/hr 0.00 in0.0 mm
06:42 AM 63.0°F17.2°C 53.2°F11.8°C 71% 1.0 mph NW1.6 kmh NW 4.5 mph7.2 kmh 30.05 in1017.6 mb 0.00 in0.0 mm 0.00 in/hr0.0 mm/hr 0.00 in0.0 mm
06:53 AM 64.4°F18.0°C 52.9°F11.6°C 67% 1.0 mph NE1.6 kmh NE 6.9 mph11.1 kmh 30.05 in1017.6 mb 0.00 in0.0 mm 0.00 in/hr0.0 mm/hr 0.00 in0.0 mm
07:04 AM 66.2°F19.0°C 52.4°F11.3°C 62% 2.8 mph E4.5 kmh E 8.3 mph13.4 kmh 30.05 in1017.6 mb 0.00 in0.0 mm 0.00 in/hr0.0 mm/hr 0.00 in0.0 mm
07:15 AM 66.7°F19.3°C 52.9°F11.6°C 62% 1.5 mph NNW2.4 kmh NNW 6.0 mph9.7 kmh 30.06 in1017.9 mb 0.00 in0.0 mm 0.00 in/hr0.0 mm/hr 0.00 in0.0 mm
07:26 AM 68.0°F20.0°C 52.6°F11.4°C 59% 3.7 mph E6.0 kmh E 8.3 mph13.4 kmh 30.05 in1017.6 mb 0.00 in0.0 mm 0.00 in/hr0.0 mm/hr 0.00 in0.0 mm
07:37 AM 68.7°F20.4°C 54.3°F12.4°C 61% 4.7 mph E7.6 kmh E 8.3 mph13.4 kmh 30.05 in1017.6 mb 0.00 in0.0 mm 0.00 in/hr0.0 mm/hr 0.00 in0.0 mm
07:48 AM 69.1°F20.6°C 54.1°F12.3°C 60% 3.4 mph E5.5 kmh E 7.6 mph12.2 kmh 30.05 in1017.6 mb 0.00 in0.0 mm 0.00 in/hr0.0 mm/hr 0.00 in0.0 mm
07:59 AM 70.0°F21.1°C 54.0°F12.2°C 58% 3.1 mph ESE5.0 kmh ESE 8.3 mph13.4 kmh 30.06 in1017.9 mb 0.00 in0.0 mm 0.00 in/hr0.0 mm/hr 0.00 in0.0 mm
08:10 AM 70.2°F21.2°C 53.1°F11.7°C 56% 2.3 mph SE3.7 kmh SE 9.2 mph14.8 kmh 30.05 in1017.6 mb 0.00 in0.0 mm 0.00 in/hr0.0 mm/hr 0.00 in0.0 mm
08:21 AM 71.2°F21.8°C 53.0°F11.7°C 54% 1.2 mph W1.9 kmh W 4.5 mph7.2 kmh 30.05 in1017.6 mb 0.00 in0.0 mm 0.00 in/hr0.0 mm/hr 0.00 in0.0 mm
08:32 AM 72.1°F22.3°C 53.3°F11.8°C 53% 1.4 mph SW2.3 kmh SW 4.5 mph7.2 kmh 30.05 in1017.6 mb 0.00 in0.0 mm 0.00 in/hr0.0 mm/hr 0.00 in0.0 mm
08:43 AM 73.4°F23.0°C 53.3°F11.8°C 51% 1.8 mph SE2.9 kmh SE 6.0 mph9.7 kmh 30.05 in1017.6 mb 0.00 in0.0 mm 0.00 in/hr0.0 mm/hr 0.00 in0.0 mm
08:54 AM 74.3°F23.5°C 54.1°F12.3°C 51% 2.9 mph NE4.7 kmh NE 6.9 mph11.1 kmh 30.06 in1017.9 mb 0.00 in0.0 mm 0.00 in/hr0.0 mm/hr 0.00 in0.0 mm
09:05 AM 74.8°F23.8°C 54.0°F12.2°C 50% 3.8 mph E6.1 kmh E 6.9 mph11.1 kmh 30.05 in1017.6 mb 0.00 in0.0 mm 0.00 in/hr0.0 mm/hr 0.00 in0.0 mm
09:16 AM 76.1°F24.5°C 55.2°F12.9°C 50% 3.3 mph E5.3 kmh E 6.9 mph11.1 kmh 30.05 in1017.6 mb 0.00 in0.0 mm 0.00 in/hr0.0 mm/hr 0.00 in0.0 mm
09:27 AM 77.0°F25.0°C 55.4°F13.0°C 49% 2.6 mph E4.2 kmh E 6.9 mph11.1 kmh 30.05 in1017.6 mb 0.00 in0.0 mm 0.00 in/hr0.0 mm/hr 0.00 in0.0 mm
09:38 AM 77.5°F25.3°C 55.9°F13.3°C 49% 4.3 mph E6.9 kmh E 8.3 mph13.4 kmh 30.05 in1017.6 mb 0.00 in0.0 mm 0.00 in/hr0.0 mm/hr 0.00 in0.0 mm
09:49 AM 78.6°F25.9°C 49.1°F9.5°C 38% 4.3 mph SE6.9 kmh SE 10.7 mph17.2 kmh 30.05 in1017.6 mb 0.00 in0.0 mm 0.00 in/hr0.0 mm/hr 0.00 in0.0 mm
10:00 AM 80.1°F26.7°C 51.1°F10.6°C 39% 4.4 mph SE7.1 kmh SE 8.3 mph13.4 kmh 30.05 in1017.6 mb 0.00 in0.0 mm 0.00 in/hr0.0 mm/hr 0.00 in0.0 mm
10:11 AM 79.9°F26.6°C 53.2°F11.8°C 42% 4.7 mph SE7.6 kmh SE 12.1 mph19.5 kmh 30.05 in1017.6 mb 0.00 in0.0 mm 0.00 in/hr0.0 mm/hr 0.00 in0.0 mm
10:22 AM 80.8°F27.1°C 51.8°F11.0°C 39% 5.1 mph ESE8.2 kmh ESE 9.2 mph14.8 kmh 30.05 in1017.6 mb 0.00 in0.0 mm 0.00 in/hr0.0 mm/hr 0.00 in0.0 mm
10:33 AM 81.5°F27.5°C 53.2°F11.8°C 40% 4.8 mph SE7.7 kmh SE 9.8 mph15.8 kmh 30.05 in1017.6 mb 0.00 in0.0 mm 0.00 in/hr0.0 mm/hr 0.00 in0.0 mm
10:44 AM 81.7°F27.6°C 48.3°F9.1°C 34% 3.8 mph SE6.1 kmh SE 8.3 mph13.4 kmh 30.05 in1017.6 mb 0.00 in0.0 mm 0.00 in/hr0.0 mm/hr 0.00 in0.0 mm
10:55 AM 82.0°F27.8°C 47.7°F8.7°C 33% 3.9 mph SE6.3 kmh SE 9.2 mph14.8 kmh 30.05 in1017.6 mb 0.00 in0.0 mm 0.00 in/hr0.0 mm/hr 0.00 in0.0 mm
11:06 AM 82.6°F28.1°C 50.9°F10.5°C 36% 3.2 mph SE5.1 kmh SE 7.6 mph12.2 kmh 30.05 in1017.6 mb 0.00 in0.0 mm 0.00 in/hr0.0 mm/hr 0.00 in0.0 mm
11:17 AM 82.9°F28.3°C 50.3°F10.2°C 35% 3.4 mph SE5.5 kmh SE 9.2 mph14.8 kmh 30.04 in1017.3 mb 0.00 in0.0 mm 0.00 in/hr0.0 mm/hr 0.00 in0.0 mm
11:28 AM 82.9°F28.3°C 49.4°F9.7°C 34% 4.6 mph SSE7.4 kmh SSE 9.8 mph15.8 kmh 30.04 in1017.3 mb 0.00 in0.0 mm 0.00 in/hr0.0 mm/hr 0.00 in0.0 mm
11:39 AM 84.0°F28.9°C 49.4°F9.7°C 33% 2.7 mph S4.3 kmh S 7.6 mph12.2 kmh 30.04 in1017.3 mb 0.00 in0.0 mm 0.00 in/hr0.0 mm/hr 0.00 in0.0 mm
11:50 AM 84.9°F29.4°C 48.2°F9.0°C 31% 3.5 mph SSE5.6 kmh SSE 9.2 mph14.8 kmh 30.03 in1016.9 mb 0.00 in0.0 mm 0.00 in/hr0.0 mm/hr 0.00 in0.0 mm
12:01 PM 85.3°F29.6°C 47.5°F8.6°C 30% 4.4 mph S7.1 kmh S 12.1 mph19.5 kmh 30.03 in1016.9 mb 0.00 in0.0 mm 0.00 in/hr0.0 mm/hr 0.00 in0.0 mm
12:12 PM 85.3°F29.6°C 48.5°F9.2°C 31% 6.3 mph S10.1 kmh S 12.1 mph19.5 kmh 30.03 in1016.9 mb 0.00 in0.0 mm 0.00 in/hr0.0 mm/hr 0.00 in0.0 mm
12:23 PM 85.6°F29.8°C 48.8°F9.3°C 31% 4.9 mph S7.9 kmh S 12.1 mph19.5 kmh 30.03 in1016.9 mb 0.00 in0.0 mm 0.00 in/hr0.0 mm/hr 0.00 in0.0 mm
12:34 PM 86.0°F30.0°C 49.1°F9.5°C 31% 4.9 mph SSW7.9 kmh SSW 9.8 mph15.8 kmh 30.03 in1016.9 mb 0.00 in0.0 mm 0.00 in/hr0.0 mm/hr 0.00 in0.0 mm
12:45 PM 86.4°F30.2°C 48.4°F9.1°C 30% 5.7 mph S9.2 kmh S 13.6 mph21.9 kmh 30.02 in1016.6 mb 0.00 in0.0 mm 0.00 in/hr0.0 mm/hr 0.00 in0.0 mm
12:56 PM 86.9°F30.5°C 48.8°F9.3°C 30% 5.0 mph SSW8.0 kmh SSW 10.7 mph17.2 kmh 30.02 in1016.6 mb 0.00 in0.0 mm 0.00 in/hr0.0 mm/hr 0.00 in0.0 mm
01:07 PM 86.9°F30.5°C 48.8°F9.3°C 30% 6.5 mph SW10.5 kmh SW 9.8 mph15.8 kmh 30.02 in1016.6 mb 0.00 in0.0 mm 0.00 in/hr0.0 mm/hr 0.00 in0.0 mm
01:18 PM 88.5°F31.4°C 50.2°F10.1°C 30% 2.6 mph WSW4.2 kmh WSW 9.8 mph15.8 kmh 30.01 in1016.3 mb 0.00 in0.0 mm 0.00 in/hr0.0 mm/hr 0.00 in0.0 mm
01:29 PM 88.5°F31.4°C 50.2°F10.1°C 30% 3.5 mph SW5.6 kmh SW 9.8 mph15.8 kmh 30.01 in1016.3 mb 0.00 in0.0 mm 0.00 in/hr0.0 mm/hr 0.00 in0.0 mm
01:40 PM 88.7°F31.5°C 50.4°F10.2°C 30% 2.9 mph SW4.7 kmh SW 10.7 mph17.2 kmh 30.00 in1015.9 mb 0.00 in0.0 mm 0.00 in/hr0.0 mm/hr 0.00 in0.0 mm
01:51 PM 88.3°F31.3°C 49.0°F9.4°C 29% 5.2 mph S8.4 kmh S 15.2 mph24.5 kmh 30.00 in1015.9 mb 0.00 in0.0 mm 0.00 in/hr0.0 mm/hr 0.00 in0.0 mm
02:02 PM 88.5°F31.4°C 49.1°F9.5°C 29% 5.6 mph S9.0 kmh S 13.0 mph20.9 kmh 29.99 in1015.6 mb 0.00 in0.0 mm 0.00 in/hr0.0 mm/hr 0.00 in0.0 mm
02:13 PM 89.1°F31.7°C 49.6°F9.8°C 29% 4.1 mph SSE6.6 kmh SSE 9.8 mph15.8 kmh 29.99 in1015.6 mb 0.00 in0.0 mm 0.00 in/hr0.0 mm/hr 0.00 in0.0 mm
02:24 PM 90.0°F32.2°C 48.0°F8.9°C 27% 5.7 mph S9.2 kmh S 15.9 mph25.6 kmh 29.99 in1015.6 mb 0.00 in0.0 mm 0.00 in/hr0.0 mm/hr 0.00 in0.0 mm
02:35 PM 89.6°F32.0°C 47.7°F8.7°C 27% 4.9 mph S7.9 kmh S 11.4 mph18.3 kmh 29.99 in1015.6 mb 0.00 in0.0 mm 0.00 in/hr0.0 mm/hr 0.00 in0.0 mm
02:46 PM 89.6°F32.0°C 47.7°F8.7°C 27% 3.7 mph SSW6.0 kmh SSW 9.2 mph14.8 kmh 29.98 in1015.2 mb 0.00 in0.0 mm 0.00 in/hr0.0 mm/hr 0.00 in0.0 mm
02:57 PM 90.3°F32.4°C 47.1°F8.4°C 26% 2.2 mph SW3.5 kmh SW 8.3 mph13.4 kmh 29.97 in1014.9 mb 0.00 in0.0 mm 0.00 in/hr0.0 mm/hr 0.00 in0.0 mm
03:08 PM 90.5°F32.5°C 47.3°F8.5°C 26% 6.7 mph S10.8 kmh S 10.7 mph17.2 kmh 29.96 in1014.6 mb 0.00 in0.0 mm 0.00 in/hr0.0 mm/hr 0.00 in0.0 mm
03:19 PM 90.3°F32.4°C 45.9°F7.7°C 25% 6.0 mph SSE9.7 kmh SSE 12.1 mph19.5 kmh 29.96 in1014.6 mb 0.00 in0.0 mm 0.00 in/hr0.0 mm/hr 0.00 in0.0 mm
03:30 PM 89.6°F32.0°C 46.5°F8.1°C 26% 5.1 mph S8.2 kmh S 18.3 mph29.5 kmh 29.96 in1014.6 mb 0.00 in0.0 mm 0.00 in/hr0.0 mm/hr 0.00 in0.0 mm
03:41 PM 89.4°F31.9°C 47.6°F8.7°C 27% 5.3 mph SSW8.5 kmh SSW 9.8 mph15.8 kmh 29.96 in1014.6 mb 0.00 in0.0 mm 0.00 in/hr0.0 mm/hr 0.00 in0.0 mm
03:52 PM 89.1°F31.7°C 46.1°F7.8°C 26% 4.7 mph SSW7.6 kmh SSW 9.8 mph15.8 kmh 29.95 in1014.2 mb 0.00 in0.0 mm 0.00 in/hr0.0 mm/hr 0.00 in0.0 mm
04:03 PM 88.7°F31.5°C 47.0°F8.3°C 27% 4.6 mph SSW7.4 kmh SSW 8.3 mph13.4 kmh 29.95 in1014.2 mb 0.00 in0.0 mm 0.00 in/hr0.0 mm/hr 0.00 in0.0 mm
04:14 PM 90.7°F32.6°C 46.2°F7.9°C 25% 2.0 mph S3.2 kmh S 6.0 mph9.7 kmh 29.94 in1013.9 mb 0.00 in0.0 mm 0.00 in/hr0.0 mm/hr 0.00 in0.0 mm
04:25 PM 90.7°F32.6°C 46.2°F7.9°C 25% 2.9 mph SE4.7 kmh SE 10.7 mph17.2 kmh 29.94 in1013.9 mb 0.00 in0.0 mm 0.00 in/hr0.0 mm/hr 0.00 in0.0 mm
04:36 PM 89.4°F31.9°C 53.0°F11.7°C 32% 3.9 mph S6.3 kmh S 6.9 mph11.1 kmh 29.94 in1013.9 mb 0.00 in0.0 mm 0.00 in/hr0.0 mm/hr 0.00 in0.0 mm
04:47 PM 87.6°F30.9°C 51.5°F10.8°C 32% 3.7 mph SE6.0 kmh SE 7.6 mph12.2 kmh 29.94 in1013.9 mb 0.00 in0.0 mm 0.00 in/hr0.0 mm/hr 0.00 in0.0 mm
04:58 PM 86.7°F30.4°C 56.2°F13.4°C 38% 3.6 mph S5.8 kmh S 10.7 mph17.2 kmh 29.95 in1014.2 mb 0.00 in0.0 mm 0.00 in/hr0.0 mm/hr 0.00 in0.0 mm
05:09 PM 79.3°F26.3°C 50.5°F10.3°C 39% 9.6 mph ESE15.4 kmh ESE 27.3 mph43.9 kmh 29.95 in1014.2 mb 0.12 in3.0 mm 0.15 in/hr3.8 mm/hr 0.12 in3.0 mm
05:20 PM 78.6°F25.9°C 56.8°F13.8°C 49% 5.1 mph ENE8.2 kmh ENE 12.1 mph19.5 kmh 29.95 in1014.2 mb 0.12 in3.0 mm 0.00 in/hr0.0 mm/hr 0.12 in3.0 mm
05:31 PM 77.7°F25.4°C 57.2°F14.0°C 51% 4.8 mph NNE7.7 kmh NNE 9.2 mph14.8 kmh 29.96 in1014.6 mb 0.12 in3.0 mm 0.00 in/hr0.0 mm/hr 0.12 in3.0 mm
05:42 PM 77.0°F25.0°C 55.4°F13.0°C 49% 6.0 mph NNE9.7 kmh NNE 14.5 mph23.3 kmh 29.96 in1014.6 mb 0.12 in3.0 mm 0.00 in/hr0.0 mm/hr 0.12 in3.0 mm
05:53 PM 79.5°F26.4°C 48.2°F9.0°C 36% 7.8 mph N12.6 kmh N 21.3 mph34.3 kmh 29.95 in1014.2 mb 0.12 in3.0 mm 0.00 in/hr0.0 mm/hr 0.12 in3.0 mm
06:04 PM 79.3°F26.3°C 53.5°F11.9°C 43% 5.5 mph NE8.9 kmh NE 10.7 mph17.2 kmh 29.96 in1014.6 mb 0.08 in2.0 mm 0.00 in/hr0.0 mm/hr 0.12 in3.0 mm
06:15 PM 77.4°F25.2°C 53.8°F12.1°C 46% 8.3 mph SE13.4 kmh SE 18.3 mph29.5 kmh 29.98 in1015.2 mb 0.00 in0.0 mm 0.00 in/hr0.0 mm/hr 0.12 in3.0 mm
06:26 PM 77.4°F25.2°C 49.5°F9.7°C 40% 7.2 mph S11.6 kmh S 14.5 mph23.3 kmh 29.99 in1015.6 mb 0.00 in0.0 mm 0.00 in/hr0.0 mm/hr 0.12 in3.0 mm
06:37 PM 75.7°F24.3°C 54.2°F12.3°C 49% 6.9 mph WSW11.1 kmh WSW 16.8 mph27.0 kmh 29.99 in1015.6 mb 0.01 in0.3 mm 0.05 in/hr1.3 mm/hr 0.14 in3.6 mm
06:48 PM 72.7°F22.6°C 53.2°F11.8°C 52% 8.5 mph S13.7 kmh S 17.4 mph28.0 kmh 29.99 in1015.6 mb 0.07 in1.8 mm 0.33 in/hr8.4 mm/hr 0.19 in4.8 mm
06:59 PM 72.9°F22.7°C 52.2°F11.2°C 50% 16.3 mph S26.2 kmh S 25.1 mph40.4 kmh 30.00 in1015.9 mb 0.10 in2.5 mm 0.16 in/hr4.1 mm/hr 0.22 in5.6 mm
07:10 PM 72.0°F22.2°C 53.7°F12.1°C 54% 17.6 mph S28.3 kmh S 30.4 mph48.9 kmh 30.00 in1015.9 mb 0.10 in2.5 mm 0.00 in/hr0.0 mm/hr 0.22 in5.6 mm
07:21 PM 70.5°F21.4°C 54.5°F12.5°C 58% 18.1 mph SSE29.1 kmh SSE 34.2 mph55.0 kmh 30.01 in1016.3 mb 0.10 in2.5 mm 0.00 in/hr0.0 mm/hr 0.22 in5.6 mm
07:32 PM 69.3°F20.7°C 54.8°F12.7°C 61% 17.1 mph SE27.5 kmh SE 26.6 mph42.8 kmh 30.02 in1016.6 mb 0.10 in2.5 mm 0.00 in/hr0.0 mm/hr 0.22 in5.6 mm
07:43 PM 69.1°F20.6°C 54.6°F12.6°C 61% 14.3 mph SSE23.0 kmh SSE 28.9 mph46.5 kmh 30.02 in1016.6 mb 0.03 in0.8 mm 0.00 in/hr0.0 mm/hr 0.22 in5.6 mm
07:54 PM 68.7°F20.4°C 53.8°F12.1°C 60% 7.4 mph SSE11.9 kmh SSE 14.5 mph23.3 kmh 29.99 in1015.6 mb 0.01 in0.3 mm 0.00 in/hr0.0 mm/hr 0.22 in5.6 mm
08:05 PM 68.4°F20.2°C 57.1°F13.9°C 68% 3.8 mph E6.1 kmh E 6.9 mph11.1 kmh 29.98 in1015.2 mb 0.00 in0.0 mm 0.00 in/hr0.0 mm/hr 0.22 in5.6 mm
08:16 PM 68.4°F20.2°C 55.3°F12.9°C 64% 6.4 mph S10.3 kmh S 15.9 mph25.6 kmh 30.00 in1015.9 mb 0.00 in0.0 mm 0.00 in/hr0.0 mm/hr 0.22 in5.6 mm
08:27 PM 68.7°F20.4°C 55.7°F13.2°C 64% 5.0 mph SSW8.0 kmh SSW 11.4 mph18.3 kmh 30.00 in1015.9 mb 0.00 in0.0 mm 0.00 in/hr0.0 mm/hr 0.22 in5.6 mm
08:38 PM 68.4°F20.2°C 56.2°F13.4°C 66% 1.5 mph SW2.4 kmh SW 4.5 mph7.2 kmh 30.01 in1016.3 mb 0.00 in0.0 mm 0.00 in/hr0.0 mm/hr 0.22 in5.6 mm
08:49 PM 66.9°F19.4°C 57.4°F14.1°C 72% 3.5 mph N5.6 kmh N 6.9 mph11.1 kmh 30.02 in1016.6 mb 0.00 in0.0 mm 0.00 in/hr0.0 mm/hr 0.22 in5.6 mm
09:00 PM 66.9°F19.4°C 57.8°F14.3°C 73% 1.2 mph NNE1.9 kmh NNE 4.5 mph7.2 kmh 30.03 in1016.9 mb 0.00 in0.0 mm 0.00 in/hr0.0 mm/hr 0.22 in5.6 mm
09:11 PM 67.6°F19.8°C 56.0°F13.3°C 67% 0.9 mph SW1.4 kmh SW 3.1 mph5.0 kmh 30.04 in1017.3 mb 0.00 in0.0 mm 0.00 in/hr0.0 mm/hr 0.22 in5.6 mm
09:22 PM 68.2°F20.1°C 57.8°F14.3°C 70% 0.4 mph N0.6 kmh N 2.2 mph3.5 kmh 30.04 in1017.3 mb 0.00 in0.0 mm 0.00 in/hr0.0 mm/hr 0.22 in5.6 mm
09:33 PM 66.4°F19.1°C 59.6°F15.3°C 79% 3.8 mph NNE6.1 kmh NNE 6.9 mph11.1 kmh 30.05 in1017.6 mb 0.00 in0.0 mm 0.00 in/hr0.0 mm/hr 0.22 in5.6 mm
09:44 PM 65.3°F18.5°C 58.1°F14.5°C 78% 3.1 mph N5.0 kmh N 8.3 mph13.4 kmh 30.06 in1017.9 mb 0.00 in0.0 mm 0.00 in/hr0.0 mm/hr 0.22 in5.6 mm
09:55 PM 66.2°F19.0°C 55.9°F13.3°C 70% 0.4 mph NW0.6 kmh NW 3.1 mph5.0 kmh 30.06 in1017.9 mb 0.00 in0.0 mm 0.00 in/hr0.0 mm/hr 0.22 in5.6 mm
10:06 PM 66.7°F19.3°C 56.8°F13.8°C 71% 1.5 mph N2.4 kmh N 3.1 mph5.0 kmh 30.06 in1017.9 mb 0.00 in0.0 mm 0.00 in/hr0.0 mm/hr 0.22 in5.6 mm
10:17 PM 66.6°F19.2°C 57.0°F13.9°C 72% 2.6 mph NNE4.2 kmh NNE 6.9 mph11.1 kmh 30.06 in1017.9 mb 0.00 in0.0 mm 0.00 in/hr0.0 mm/hr 0.22 in5.6 mm
10:28 PM 66.9°F19.4°C 55.7°F13.2°C 68% 5.0 mph NNE8.0 kmh NNE 9.2 mph14.8 kmh 30.06 in1017.9 mb 0.00 in0.0 mm 0.00 in/hr0.0 mm/hr 0.22 in5.6 mm
10:39 PM 66.6°F19.2°C 55.8°F13.2°C 69% 9.8 mph N15.8 kmh N 16.8 mph27.0 kmh 30.04 in1017.3 mb 0.00 in0.0 mm 0.00 in/hr0.0 mm/hr 0.22 in5.6 mm
10:50 PM 64.9°F18.3°C 57.8°F14.3°C 78% 8.8 mph NE14.2 kmh NE 19.7 mph31.7 kmh 30.05 in1017.6 mb 0.00 in0.0 mm 0.00 in/hr0.0 mm/hr 0.22 in5.6 mm
11:01 PM 66.7°F19.3°C 55.6°F13.1°C 68% 8.1 mph NE13.0 kmh NE 14.5 mph23.3 kmh 30.04 in1017.3 mb 0.00 in0.0 mm 0.00 in/hr0.0 mm/hr 0.22 in5.6 mm
11:12 PM 66.6°F19.2°C 56.2°F13.4°C 70% 9.1 mph NNE14.6 kmh NNE 13.6 mph21.9 kmh 30.05 in1017.6 mb 0.00 in0.0 mm 0.00 in/hr0.0 mm/hr 0.22 in5.6 mm
11:23 PM 65.7°F18.7°C 57.0°F13.9°C 74% 8.0 mph N12.9 kmh N 14.5 mph23.3 kmh 30.04 in1017.3 mb 0.00 in0.0 mm 0.00 in/hr0.0 mm/hr 0.22 in5.6 mm
11:34 PM 64.6°F18.1°C 57.1°F13.9°C 77% 4.0 mph NE6.4 kmh NE 8.3 mph13.4 kmh 30.03 in1016.9 mb 0.00 in0.0 mm 0.00 in/hr0.0 mm/hr 0.22 in5.6 mm
11:45 PM 64.8°F18.2°C 57.2°F14.0°C 77% 4.0 mph NE6.4 kmh NE 9.2 mph14.8 kmh 30.02 in1016.6 mb 0.00 in0.0 mm 0.00 in/hr0.0 mm/hr 0.22 in5.6 mm
11:56 PM 64.2°F17.9°C 56.7°F13.7°C 77% 4.1 mph WSW6.6 kmh WSW 9.2 mph14.8 kmh 30.01 in1016.3 mb 0.00 in0.0 mm 0.00 in/hr0.0 mm/hr 0.22 in5.6 mm